Data for 05/03/2009

Time Sea-Level Adjusted Pressure Absolute Pressure Temperature Relative Humidity Dew Point   
(mb) (inHg) (mb) (inHg) (C) (F) (%) (C) (F)
00:05 1015 29.97 844 24.92 7.5 45.6 49 -2.6 27.3
00:10 1015 29.97 844 24.92 7.5 45.5 49 -2.5 27.4
00:15 1015 29.97 844 24.92 7.4 45.4 49 -2.6 27.3
00:20 1015 29.97 844 24.92 7.4 45.3 49 -2.5 27.4
00:25 1015 29.97 844 24.92 7.3 45.1 50 -2.5 27.6
00:30 1015 29.97 844 24.92 7.2 45 51 -2.4 27.8
00:35 1015 29.97 844 24.92 7.1 44.8 52 -2.2 28.1
00:40 1015 29.97 844 24.92 7 44.6 52 -2.2 28.1
00:45 1015 29.97 845 24.95 7 44.5 52 -2.3 27.9
00:50 1015 29.97 845 24.95 6.9 44.4 52 -2.2 28.1
00:55 1015 29.97 845 24.95 6.8 44.2 53 -2 28.4
01:00 1016 30 845 24.95 6.7 44 53 -2.1 28.2
01:05 1016 30 845 24.95 6.6 43.8 54 -2 28.4
01:10 1016 30 845 24.95 6.5 43.7 57 -1.4 29.4
01:15 1016 30 845 24.95 6.3 43.3 59 -1.2 29.8
01:20 1016 30 845 24.95 6.1 43 59 -1.3 29.6
01:25 1016 30 845 24.95 5.9 42.5 62 -0.9 30.4
01:30 1016 30 845 24.95 5.5 42 64 -0.7 30.8
01:35 1016 30 845 24.95 5.2 41.4 67 -0.3 31.4
01:40 1016 30 845 24.95 4.8 40.6 70 -0.1 31.7
01:45 1016 30 845 24.95 4.6 40.3 72 -0 32
01:50 1016 30 845 24.95 4.4 39.9 74 0.2 32.4
01:55 1016 30 845 24.95 4.2 39.5 76 0.3 32.5
02:00 1016 30 845 24.95 3.9 39 78 0.4 32.8
02:05 1016 30 845 24.95 3.7 38.6 80 0.5 32.9
02:10 1016 30 845 24.95 3.4 38.2 82 0.7 33.2
02:15 1016 30 845 24.95 3.2 37.7 84 0.7 33.2
02:20 1016 30 845 24.95 3 37.4 84 0.6 33
02:25 1016 30 845 24.95 2.9 37.3 84 0.6 33
02:30 1016 30 845 24.95 2.9 37.1 85 0.6 33.1
02:35 1016 30 845 24.95 2.8 37 87 0.8 33.5
02:40 1016 30 845 24.95 2.7 36.9 87 0.7 33.3
02:45 1016 30 845 24.95 2.6 36.7 89 0.9 33.7
02:50 1016 30 845 24.95 2.5 36.5 89 0.9 33.6
02:55 1016 30 845 24.95 2.3 36.1 90 0.9 33.5
03:00 1016 30 845 24.95 2.2 35.9 91 0.9 33.6
03:05 1016 30 845 24.95 2 35.7 92 0.9 33.6
03:10 1016 30 845 24.95 1.9 35.5 92 0.8 33.4
03:15 1016 30 845 24.95 1.8 35.3 93 0.8 33.5
03:20 1016 30 845 24.95 1.8 35.2 94 0.9 33.6
03:25 1016 30 845 24.95 1.7 35.1 93 0.7 33.3
03:30 1016 30 845 24.95 1.6 34.9 93 0.7 33.2
03:35 1016 30 845 24.95 1.6 34.8 94 0.8 33.4
03:40 1016 30 845 24.95 1.5 34.7 94 0.7 33.2
03:45 1016 30 845 24.95 1.5 34.8 95 0.7 33.3
03:50 1016 30 845 24.95 1.5 34.7 95 0.8 33.4
03:55 1016 30 845 24.95 1.6 34.8 95 0.8 33.4
04:00 1016 30 845 24.95 1.5 34.7 94 0.6 33.2
04:05 1016 30 846 24.98 1.5 34.7 95 0.8 33.4
04:10 1016 30 846 24.98 1.5 34.7 95 0.7 33.3
04:15 1016 30 846 24.98 1.5 34.7 95 0.8 33.4
04:20 1016 30 846 24.98 1.5 34.7 95 0.8 33.5
04:25 1016 30 846 24.98 1.5 34.7 95 0.8 33.4
04:30 1016 30 846 24.98 1.4 34.6 95 0.7 33.3
04:35 1016 30 846 24.98 1.4 34.5 95 0.7 33.2
04:40 1017 30.03 846 24.98 1.4 34.5 95 0.7 33.2
04:45 1017 30.03 846 24.98 1.4 34.5 95 0.7 33.2
04:50 1017 30.03 846 24.98 1.4 34.5 95 0.7 33.2
04:55 1017 30.03 846 24.98 1.4 34.5 94 0.6 33.1
05:00 1017 30.03 846 24.98 1.4 34.6 95 0.7 33.3
05:05 1017 30.03 846 24.98 1.4 34.6 95 0.7 33.3
05:10 1017 30.03 846 24.98 1.3 34.4 95 0.6 33.1
05:15 1017 30.03 846 24.98 1.3 34.4 95 0.6 33
05:20 1017 30.03 846 24.98 1.3 34.3 95 0.5 33
05:25 1017 30.03 846 24.98 1.3 34.4 96 0.7 33.2
05:30 1017 30.03 846 24.98 1.4 34.4 95 0.7 33.2
05:35 1017 30.03 846 24.98 1.4 34.5 96 0.8 33.4
05:40 1017 30.03 846 24.98 1.4 34.5 96 0.8 33.4
05:45 1017 30.03 846 24.98 1.4 34.5 95 0.8 33.4
05:50 1017 30.03 846 24.98 1.4 34.5 95 0.7 33.3
05:55 1017 30.03 846 24.98 1.4 34.5 96 0.8 33.4
06:00 1017 30.03 846 24.98 1.5 34.7 96 0.9 33.6
06:05 1017 30.03 846 24.98 1.5 34.8 95 0.9 33.6
06:10 1017 30.03 846 24.98 1.5 34.6 96 0.8 33.5
06:15 1017 30.03 846 24.98 1.4 34.5 96 0.9 33.5
06:20 1017 30.03 846 24.98 1.4 34.5 96 0.8 33.5
06:25 1017 30.03 846 24.98 1.4 34.4 96 0.8 33.5
06:30 1017 30.03 846 24.98 1.3 34.4 96 0.8 33.4
06:35 1017 30.03 846 24.98 1.3 34.4 96 0.8 33.5
06:40 1017 30.03 846 24.98 1.4 34.5 96 0.9 33.5
06:45 1017 30.03 846 24.98 1.4 34.6 96 0.9 33.6
06:50 1017 30.03 846 24.98 1.3 34.4 96 0.8 33.4
06:55 1017 30.03 846 24.98 1.2 34.2 97 0.8 33.4
07:00 1017 30.03 846 24.98 1.2 34.1 97 0.7 33.3
07:05 1017 30.03 846 24.98 1.2 34.2 97 0.8 33.4
07:10 1017 30.03 846 24.98 1.2 34.1 97 0.8 33.4
07:15 1017 30.03 846 24.98 1.2 34.2 97 0.8 33.5
07:20 1017 30.03 846 24.98 1.3 34.3 97 0.9 33.6
07:25 1017 30.03 846 24.98 1.4 34.5 97 0.9 33.7
07:30 1017 30.03 846 24.98 1.5 34.7 97 1 33.8
07:35 1017 30.03 846 24.98 1.6 34.9 96 1 33.8
07:40 1017 30.03 846 24.98 1.8 35.2 95 1.1 34
07:45 1017 30.03 846 24.98 1.8 35.3 95 1.1 34
07:50 1017 30.03 846 24.98 1.9 35.4 95 1.2 34.1
07:55 1017 30.03 846 24.98 2 35.6 95 1.2 34.2
08:00 1017 30.03 846 24.98 2.1 35.7 94 1.1 34
08:05 1017 30.03 846 24.98 2.2 35.9 94 1.2 34.2
08:10 1017 30.03 846 24.98 2.4 36.3 93 1.4 34.6
08:15 1017 30.03 846 24.98 2.5 36.6 93 1.5 34.6
08:20 1016 30 846 24.98 2.5 36.6 93 1.6 34.8
08:25 1016 30 846 24.98 2.7 36.9 92 1.6 34.8
08:30 1016 30 846 24.98 3.2 37.8 91 1.9 35.5
08:35 1016 30 846 24.98 4 39.2 87 2.1 35.8
08:40 1016 30 846 24.98 4.5 40 87 2.4 36.4
08:45 1016 30 846 24.98 4.9 40.8 83 2.2 36
08:50 1016 30 846 24.98 4.5 40 86 2.3 36.1
08:55 1016 30 846 24.98 5.2 41.4 83 2.6 36.7
09:00 1016 30 845 24.95 5.6 42 82 2.8 37
09:05 1016 30 845 24.95 6.2 43.1 78 2.5 36.6
09:10 1016 30 845 24.95 6.8 44.2 76 2.9 37.3
09:15 1016 30 845 24.95 7.3 45.1 72 2.6 36.7
09:20 1016 30 845 24.95 7.2 44.9 72 2.4 36.3
09:25 1016 30 845 24.95 7.4 45.2 70 2.2 36
09:30 1016 30 845 24.95 8 46.3 68 2.5 36.6
09:35 1016 30 845 24.95 8.2 46.8 66 2.3 36.1
09:40 1016 30 845 24.95 7.2 45 73 2.7 36.9
09:45 1016 30 845 24.95 7.5 45.5 69 2.2 36
09:50 1016 30 845 24.95 8.4 47.1 67 2.6 36.6
09:55 1016 30 845 24.95 9 48.3 64 2.7 36.9
10:00 1016 30 845 24.95 8.4 47.2 65 2.3 36.1
10:05 1016 30 845 24.95 9.3 48.7 62 2.3 36.2
10:10 1016 30 845 24.95 10.1 50.1 61 2.9 37.2
10:15 1016 30 845 24.95 10.3 50.6 57 2.3 36.2
10:20 1016 30 845 24.95 10.6 51.1 57 2.5 36.5
10:25 1016 30 845 24.95 10.8 51.5 56 2.5 36.5
10:30 1016 30 845 24.95 11.1 52 55 2.5 36.4
10:35 1016 30 845 24.95 11.1 51.9 54 2.3 36.1
10:40 1016 30 845 24.95 11 51.7 55 2.3 36.2
10:45 1016 30 845 24.95 11.3 52.4 52 1.8 35.3
10:50 1016 30 845 24.95 12.1 53.9 53 3 37.3
10:55 1016 30 845 24.95 12.6 54.7 49 2.2 36
11:00 1016 30 845 24.95 13.1 55.5 48 2.5 36.5
11:05 1015 29.97 845 24.95 12.9 55.2 53 3.6 38.5
11:10 1015 29.97 845 24.95 11.7 53.1 54 2.8 37
11:15 1015 29.97 845 24.95 10.8 51.4 56 2.4 36.4
11:20 1015 29.97 844 24.92 11.1 52 56 2.7 36.9
11:25 1015 29.97 844 24.92 12.2 54 54 3.2 37.8
11:30 1015 29.97 844 24.92 12 53.6 52 2.6 36.7
11:35 1015 29.97 844 24.92 13 55.3 49 2.7 36.8
11:40 1015 29.97 844 24.92 11.9 53.4 54 3.1 37.5
11:45 1015 29.97 844 24.92 12.4 54.4 51 2.7 36.9
11:50 1015 29.97 844 24.92 12.6 54.6 55 3.7 38.7
11:55 1015 29.97 844 24.92 12.8 55 49 2.3 36.2
12:00 1015 29.97 844 24.92 13.6 56.5 46 2.3 36.2
12:05 1015 29.97 844 24.92 14.2 57.6 45 2.5 36.5
12:10 1015 29.97 844 24.92 13.7 56.7 49 3.1 37.7
12:15 1014 29.94 844 24.92 12.9 55.1 50 2.8 37
12:20 1014 29.94 844 24.92 13.7 56.7 43 1.4 34.4
12:25 1014 29.94 844 24.92 14.6 58.2 44 2.4 36.4
12:30 1014 29.94 843 24.89 15.1 59.1 41 1.9 35.4
12:35 1014 29.94 843 24.89 14.7 58.5 42 2.1 35.9
12:40 1014 29.94 843 24.89 14 57.2 43 1.7 35.1
12:45 1014 29.94 843 24.89 15.4 59.7 37 0.8 33.5
12:50 1014 29.94 843 24.89 16.2 61.2 37 1.6 34.8
12:55 1014 29.94 843 24.89 13.9 57 43 1.5 34.7
13:00 1014 29.94 843 24.89 13.8 56.9 43 1.5 34.7
13:05 1014 29.94 843 24.89 14.3 57.7 41 1.2 34.2
13:10 1014 29.94 843 24.89 15.9 60.6 36 0.8 33.5
13:15 1014 29.94 843 24.89 16.7 62 35 1.1 33.9
13:20 1013 29.91 843 24.89 16.5 61.6 35 1.1 33.9
13:25 1013 29.91 843 24.89 16.3 61.4 36 1.3 34.4
13:30 1013 29.91 842 24.86 15.6 60 39 1.8 35.3
13:35 1013 29.91 842 24.86 15.7 60.3 37 1.2 34.1
13:40 1013 29.91 842 24.86 15.9 60.6 35 0.4 32.7
13:45 1013 29.91 842 24.86 15.2 59.4 39 1.4 34.6
13:50 1013 29.91 842 24.86 15.2 59.3 39 1.3 34.4
13:55 1013 29.91 842 24.86 15 59 40 1.6 35
14:00 1013 29.91 842 24.86 14.6 58.2 42 1.9 35.4
14:05 1013 29.91 842 24.86 14.8 58.7 61 7.5 45.5
14:10 1013 29.91 842 24.86 15.3 59.5 43 2.8 37.1
14:15 1012 29.88 842 24.86 15.6 60 41 2.3 36.2
14:20 1012 29.88 842 24.86 15.6 60 39 1.6 34.9
14:25 1012 29.88 842 24.86 15.6 60.1 40 2.1 35.8
14:30 1012 29.88 841 24.83 15.3 59.5 38 1.1 34
14:35 1012 29.88 841 24.83 15.4 59.6 39 1.7 35.1
14:40 1012 29.88 841 24.83 14.8 58.7 41 1.8 35.2
14:45 1012 29.88 841 24.83 14.5 58 41 1.5 34.7
14:50 1012 29.88 841 24.83 14.7 58.4 40 1.2 34.2
14:55 1012 29.88 841 24.83 15.6 60 33 -0.7 30.8
15:00 1012 29.88 841 24.83 16.1 60.9 33 -0 31.9
15:05 1012 29.88 841 24.83 17.2 63 32 0.6 33.1
15:10 1012 29.88 841 24.83 17.5 63.5 31 0.1 32.2
15:15 1012 29.88 841 24.83 16.7 62.1 33 0.3 32.5
15:20 1011 29.85 841 24.83 16.9 62.4 30 -0.6 30.9
15:25 1011 29.85 840 24.81 17 62.6 31 -0.4 31.4
15:30 1011 29.85 840 24.81 17.6 63.6 29 -0.6 30.9
15:35 1011 29.85 840 24.81 17.8 64 29 -0.5 31.2
15:40 1011 29.85 840 24.81 17.5 63.5 30 -0.1 31.8
15:45 1011 29.85 840 24.81 16.9 62.4 30 -0.8 30.6
15:50 1011 29.85 840 24.81 15.8 60.4 32 -0.8 30.5
15:55 1011 29.85 840 24.81 15.8 60.4 33 -0.4 31.3
16:00 1011 29.85 840 24.81 16.1 61 31 -1 30.1
16:05 1010 29.83 840 24.81 16.2 61.1 29 -1.7 29
16:10 1010 29.83 840 24.81 16.6 61.8 29 -1.2 29.8
16:15 1010 29.83 839 24.78 16.1 61 31 -0.8 30.5
16:20 1010 29.83 839 24.78 15.7 60.3 31 -1.3 29.7
16:25 1010 29.83 839 24.78 16.1 60.9 30 -1.3 29.7
16:30 1010 29.83 839 24.78 16.2 61.1 30 -1.4 29.4
16:35 1010 29.83 839 24.78 16.2 61.2 29 -1.5 29.3
16:40 1010 29.83 839 24.78 16.1 61.1 27 -2.6 27.3
16:45 1010 29.83 839 24.78 16 60.8 28 -2.2 28.1
16:50 1010 29.83 839 24.78 16.1 60.9 27 -2.7 27.1
16:55 1010 29.83 839 24.78 16.4 61.5 27 -2.6 27.4
17:00 1010 29.83 839 24.78 16.2 61.1 27 -2.5 27.4
17:05 1010 29.83 839 24.78 16.3 61.3 28 -2 28.4
17:10 1010 29.83 839 24.78 16 60.8 29 -1.9 28.5
17:15 1010 29.83 839 24.78 15.7 60.3 28 -2.4 27.6
17:20 1010 29.83 839 24.78 15.6 60 29 -2.2 28.1
17:25 1009 29.8 839 24.78 15.7 60.3 28 -2.7 27.1
17:30 1009 29.8 839 24.78 15.9 60.6 27 -2.9 26.8
17:35 1009 29.8 839 24.78 15.5 60 28 -2.7 27.1
17:40 1009 29.8 839 24.78 15.7 60.2 30 -1.9 28.5
17:45 1009 29.8 839 24.78 15.6 60.1 28 -2.5 27.5
17:50 1009 29.8 838 24.75 15.5 60 29 -2.3 27.9
17:55 1009 29.8 838 24.75 15.5 59.9 28 -2.8 27
18:00 1009 29.8 838 24.75 15.4 59.8 29 -2.4 27.6
18:05 1009 29.8 838 24.75 15.4 59.7 32 -1.3 29.7
18:10 1009 29.8 839 24.78 15.2 59.3 34 -0.6 30.8
18:15 1010 29.83 839 24.78 15 59 40 1.7 35
18:20 1010 29.83 839 24.78 13.1 55.6 54 4.1 39.5
18:25 1010 29.83 839 24.78 11.7 53.1 57 3.5 38.3
18:30 1010 29.83 839 24.78 11.2 52.1 66 5.2 41.3
18:35 1010 29.83 839 24.78 9.9 49.7 72 5.2 41.3
18:40 1010 29.83 839 24.78 9.3 48.7 77 5.5 42
18:45 1010 29.83 839 24.78 8.5 47.3 79 5 41
18:50 1010 29.83 839 24.78 8.7 47.6 76 4.7 40.5
18:55 1010 29.83 839 24.78 8.7 47.7 74 4.3 39.7
19:00 1010 29.83 839 24.78 8.8 47.8 74 4.4 39.9
19:05 1010 29.83 839 24.78 9.1 48.3 69 3.7 38.7
19:10 1010 29.83 839 24.78 9.2 48.6 69 3.9 38.9
19:15 1010 29.83 839 24.78 9.2 48.5 67 3.3 38
19:20 1010 29.83 839 24.78 9.3 48.7 65 3 37.5
19:25 1010 29.83 839 24.78 9.5 49 63 2.9 37.2
19:30 1010 29.83 839 24.78 9.6 49.3 62 2.6 36.8
19:35 1010 29.83 839 24.78 9.6 49.4 64 3.1 37.6
19:40 1010 29.83 839 24.78 9.7 49.4 63 2.9 37.2
19:45 1010 29.83 839 24.78 9.8 49.6 63 3.2 37.7
19:50 1010 29.83 839 24.78 9.9 49.9 63 3.2 37.7
19:55 1010 29.83 839 24.78 10.1 50.1 61 2.8 37.1
20:00 1010 29.83 839 24.78 10.2 50.4 60 3 37.3
20:05 1010 29.83 839 24.78 10.4 50.7 59 2.8 37.1
20:10 1010 29.83 839 24.78 10.4 50.6 60 2.9 37.2
20:15 1010 29.83 839 24.78 10.4 50.8 65 4.2 39.6
20:20 1010 29.83 839 24.78 9.7 49.4 71 4.6 40.3
20:25 1010 29.83 839 24.78 9.1 48.3 68 3.6 38.4
20:30 1010 29.83 840 24.81 9.4 49 70 4.2 39.6
20:35 1010 29.83 840 24.81 9.3 48.7 69 3.8 38.9
20:40 1011 29.85 840 24.81 7.4 45.4 83 4.7 40.4
20:45 1011 29.85 840 24.81 5.6 42.1 88 3.8 38.9
20:50 1011 29.85 840 24.81 5.3 41.5 88 3.5 38.3
20:55 1011 29.85 840 24.81 5.1 41.1 90 3.5 38.3
21:00 1011 29.85 841 24.83 4.9 40.8 91 3.6 38.4
21:05 1012 29.88 841 24.83 4.8 40.7 91 3.5 38.3
21:10 1012 29.88 841 24.83 4.7 40.4 91 3.4 38.1
21:15 1012 29.88 841 24.83 4.6 40.3 91 3.2 37.8
21:20 1012 29.88 841 24.83 4.5 40.2 91 3.2 37.7
21:25 1012 29.88 841 24.83 4.5 40.1 90 3 37.4
21:30 1012 29.88 841 24.83 4.3 39.7 90 2.7 36.9
21:35 1012 29.88 841 24.83 4.1 39.3 89 2.4 36.3
21:40 1012 29.88 842 24.86 3.9 39 90 2.3 36.2
21:45 1012 29.88 842 24.86 3.6 38.5 89 1.9 35.4
21:50 1012 29.88 841 24.83 3.3 38 89 1.7 35
21:55 1012 29.88 841 24.83 3.3 37.9 90 1.8 35.3
22:00 1012 29.88 841 24.83 3.2 37.8 90 1.7 35
22:05 1012 29.88 841 24.83 2.6 36.6 92 1.4 34.4
22:10 1012 29.88 841 24.83 2.4 36.4 92 1.3 34.3
22:15 1012 29.88 841 24.83 2.3 36.2 93 1.3 34.4
22:20 1012 29.88 841 24.83 2.2 36 92 1.1 33.9
22:25 1012 29.88 841 24.83 2.4 36.3 93 1.3 34.4
22:30 1012 29.88 841 24.83 2.6 36.7 91 1.4 34.5
22:35 1012 29.88 841 24.83 2.6 36.6 93 1.5 34.7
22:40 1012 29.88 841 24.83 2.5 36.5 93 1.5 34.8
22:45 1012 29.88 841 24.83 2.6 36.7 93 1.6 34.8
22:50 1012 29.88 841 24.83 2.7 36.9 91 1.4 34.6
22:55 1012 29.88 841 24.83 2.8 37 92 1.7 35
23:00 1012 29.88 841 24.83 2.9 37.2 92 1.8 35.2
23:05 1011 29.85 841 24.83 2.9 37.1 92 1.7 35.1
23:10 1011 29.85 841 24.83 2.9 37.2 92 1.8 35.2
23:15 1011 29.85 841 24.83 3 37.5 91 1.8 35.2
23:20 1011 29.85 841 24.83 3.1 37.6 91 1.8 35.2
23:25 1011 29.85 841 24.83 3.2 37.7 92 2 35.6
23:30 1011 29.85 841 24.83 3.2 37.8 91 1.9 35.5
23:35 1011 29.85 841 24.83 3.3 37.9 91 2 35.5
23:40 1011 29.85 841 24.83 3.1 37.6 93 2 35.7
23:45 1011 29.85 841 24.83 3.1 37.6 94 2.2 36
23:50 1012 29.88 841 24.83 3 37.4 93 2 35.7
23:55 1012 29.88 841 24.83 2.8 37.1 94 1.9 35.5
24:00 1012 29.88 841 24.83 2.9 37.2 94 2 35.6